Time;durP1;ratioP1;P1;durP2;ratioP2;P2;SDS_P1;SDS_P2;PMS_P1;PMS_P2;Temp;Humidity;BMP_temperature;BMP_pressure;BME280_temperature;BME280_humidity;BME280_pressure;Samples;Min_cycle;Max_cycle;Signal;HPM_P1;HPM_P2
2023/12/10 00:00:57;;;;;;;35.60;7.88;;;7.30;99.90;;;;;;5017210;28;19927;-80
2023/12/10 00:03:22;;;;;;;38.85;8.65;;;7.30;99.90;;;;;;5001231;28;20492;-81
2023/12/10 00:05:48;;;;;;;34.95;7.40;;;7.30;99.90;;;;;;5021922;28;20052;-81
2023/12/10 00:08:14;;;;;;;33.42;7.38;;;7.30;99.90;;;;;;5000796;28;20069;-80
2023/12/10 00:10:39;;;;;;;36.90;7.93;;;7.40;99.90;;;;;;5017360;28;20091;-80
2023/12/10 00:13:05;;;;;;;38.97;7.63;;;7.40;99.90;;;;;;5016371;28;20033;-81
2023/12/10 00:15:30;;;;;;;35.72;7.68;;;7.40;99.90;;;;;;4998566;28;20037;-80
2023/12/10 00:17:56;;;;;;;35.92;7.38;;;7.30;99.90;;;;;;5016575;28;20438;-80
2023/12/10 00:20:22;;;;;;;31.00;7.63;;;7.30;99.90;;;;;;5016826;28;20557;-80
2023/12/10 00:22:48;;;;;;;32.97;7.80;;;7.30;99.90;;;;;;5021190;28;20045;-80
2023/12/10 00:25:14;;;;;;;32.00;8.05;;;7.30;99.90;;;;;;4983357;28;20073;-80
2023/12/10 00:27:39;;;;;;;36.28;7.80;;;7.30;99.90;;;;;;4980688;28;20501;-80
2023/12/10 00:30:05;;;;;;;35.30;7.78;;;7.30;99.90;;;;;;5001815;28;20077;-80
2023/12/10 00:32:31;;;;;;;38.10;8.70;;;7.40;99.90;;;;;;5001962;28;20048;-79
2023/12/10 00:34:56;;;;;;;40.00;8.25;;;7.40;99.90;;;;;;5007270;28;20041;-80
2023/12/10 00:37:22;;;;;;;33.45;8.48;;;7.40;99.90;;;;;;5016535;28;20071;-80
2023/12/10 00:39:47;;;;;;;28.15;6.88;;;7.50;99.90;;;;;;5015321;28;20037;-80
2023/12/10 00:42:13;;;;;;;35.50;7.78;;;7.50;99.90;;;;;;5020594;28;20042;-80
2023/12/10 00:44:38;;;;;;;28.05;6.00;;;7.40;99.90;;;;;;5015966;28;20045;-80
2023/12/10 00:47:04;;;;;;;35.10;6.68;;;7.40;99.90;;;;;;5032674;28;20041;-80
2023/12/10 00:49:29;;;;;;;26.35;6.45;;;7.40;99.90;;;;;;5016177;28;20041;-80
2023/12/10 00:51:55;;;;;;;34.22;6.63;;;7.40;99.90;;;;;;5013863;28;20056;-81
2023/12/10 00:54:21;;;;;;;33.50;7.05;;;7.40;99.90;;;;;;5002379;28;20033;-81
2023/12/10 00:56:46;;;;;;;34.03;6.95;;;7.40;99.90;;;;;;5015856;28;20049;-80
2023/12/10 00:59:12;;;;;;;33.78;7.35;;;7.40;99.90;;;;;;5013455;28;20049;-81
2023/12/10 01:01:37;;;;;;;34.47;6.43;;;7.30;99.90;;;;;;5008828;28;20041;-80
2023/12/10 01:04:03;;;;;;;31.20;6.32;;;7.30;99.90;;;;;;5008104;28;20060;-80
2023/12/10 01:06:29;;;;;;;33.13;7.10;;;7.30;99.90;;;;;;5032271;28;20041;-81
2023/12/10 01:08:54;;;;;;;37.63;6.95;;;7.30;99.90;;;;;;5003328;28;20034;-80
2023/12/10 01:11:20;;;;;;;42.08;7.55;;;7.30;99.90;;;;;;5030823;28;20132;-80
2023/12/10 01:13:45;;;;;;;35.40;7.50;;;7.30;99.90;;;;;;5015473;28;20044;-81
2023/12/10 01:16:13;;;;;;;35.13;7.00;;;7.30;99.90;;;;;;4999374;28;20435;-81
2023/12/10 01:18:38;;;;;;;47.78;8.00;;;7.30;99.90;;;;;;5021178;28;20377;-80
2023/12/10 01:21:09;;;;;;;42.35;7.82;;;7.30;99.90;;;;;;5005466;28;20041;-81
2023/12/10 01:23:36;;;;;;;38.50;7.78;;;7.20;99.90;;;;;;5025756;28;20124;-81
2023/12/10 01:26:01;;;;;;;41.03;7.45;;;7.20;99.90;;;;;;5031926;28;20073;-80
2023/12/10 01:28:27;;;;;;;41.60;8.13;;;7.20;99.90;;;;;;5000696;28;20103;-81
2023/12/10 01:30:52;;;;;;;39.72;7.57;;;7.20;99.90;;;;;;4996935;28;20091;-80
2023/12/10 01:33:18;;;;;;;39.90;7.85;;;7.20;99.90;;;;;;5008645;28;20087;-80
2023/12/10 01:35:43;;;;;;;35.15;7.78;;;7.20;99.90;;;;;;4999134;28;20475;-81
2023/12/10 01:38:09;;;;;;;36.10;7.50;;;7.30;99.90;;;;;;4998912;28;20048;-80
2023/12/10 01:40:35;;;;;;;34.97;7.88;;;7.20;99.90;;;;;;4999368;28;20041;-81
2023/12/10 01:43:11;;;;;;;39.28;8.32;;;7.30;99.90;;;;;;4998898;28;20120;-80
2023/12/10 01:45:36;;;;;;;41.22;8.45;;;7.30;99.90;;;;;;5003263;28;20033;-80
2023/12/10 01:48:05;;;;;;;49.00;8.30;;;7.20;99.90;;;;;;5028937;28;20120;-80
2023/12/10 01:50:36;;;;;;;41.85;8.32;;;7.30;99.90;;;;;;4979576;28;20049;-81
2023/12/10 01:53:02;;;;;;;33.47;7.93;;;7.30;99.90;;;;;;4979078;28;20038;-80
2023/12/10 01:55:29;;;;;;;43.55;8.90;;;7.20;99.90;;;;;;4979050;28;20034;-80
2023/12/10 01:57:54;;;;;;;49.35;9.20;;;7.20;99.90;;;;;;4979197;28;20042;-80
2023/12/10 02:00:21;;;;;;;40.90;8.13;;;7.30;99.90;;;;;;4997067;28;20584;-81
2023/12/10 02:02:48;;;;;;;47.10;8.40;;;7.20;99.90;;;;;;5031156;28;20131;-80
2023/12/10 02:05:13;;;;;;;52.78;8.45;;;7.30;99.90;;;;;;5015522;28;20044;-80
2023/12/10 02:07:44;;;;;;;42.20;9.30;;;7.30;99.90;;;;;;5014741;28;20037;-80
2023/12/10 02:10:10;;;;;;;52.88;9.55;;;7.30;99.90;;;;;;5022418;28;20037;-81
2023/12/10 02:12:36;;;;;;;48.03;9.52;;;7.20;99.90;;;;;;5017557;28;20042;-81
2023/12/10 02:15:19;;;;;;;49.72;9.77;;;7.30;99.90;;;;;;4996779;28;20029;-81
2023/12/10 02:17:45;;;;;;;50.00;9.07;;;7.30;99.90;;;;;;4998444;28;20045;-81
2023/12/10 02:20:12;;;;;;;52.35;9.98;;;7.30;99.90;;;;;;5014530;28;20055;-81
2023/12/10 02:22:45;;;;;;;49.35;9.52;;;7.30;99.90;;;;;;4992806;28;20052;-81
2023/12/10 02:25:13;;;;;;;54.33;8.80;;;7.30;99.90;;;;;;5015413;28;20116;-81
2023/12/10 02:27:39;;;;;;;46.42;9.23;;;7.30;99.90;;;;;;5025958;28;20435;-81
2023/12/10 02:30:05;;;;;;;54.58;8.82;;;7.30;99.90;;;;;;5014409;28;20037;-80
2023/12/10 02:32:31;;;;;;;51.30;10.23;;;7.30;99.90;;;;;;5013858;28;20069;-80
2023/12/10 02:34:56;;;;;;;47.15;9.23;;;7.30;99.90;;;;;;5013911;28;20087;-82
2023/12/10 02:37:22;;;;;;;50.00;9.38;;;7.30;99.90;;;;;;4997502;28;20136;-81
2023/12/10 02:39:47;;;;;;;54.35;9.57;;;7.30;99.90;;;;;;5005134;28;20096;-81
2023/12/10 02:42:13;;;;;;;47.42;9.50;;;7.20;99.90;;;;;;5006077;28;20053;-82
2023/12/10 02:44:38;;;;;;;48.88;9.10;;;7.20;99.90;;;;;;5001544;28;20042;-82
2023/12/10 02:47:04;;;;;;;53.30;8.95;;;7.20;99.90;;;;;;4978476;28;20136;-81
2023/12/10 02:49:29;;;;;;;51.35;9.05;;;7.20;99.90;;;;;;4994915;28;20088;-82
2023/12/10 02:51:55;;;;;;;44.03;8.70;;;7.20;99.90;;;;;;4999262;28;20129;-81
2023/12/10 02:54:20;;;;;;;54.80;8.90;;;7.20;99.90;;;;;;5008948;28;20120;-82
2023/12/10 02:56:46;;;;;;;46.17;9.15;;;7.20;99.90;;;;;;5013416;28;20133;-81
2023/12/10 02:59:12;;;;;;;49.97;10.32;;;7.20;99.90;;;;;;4993892;28;20132;-82
2023/12/10 03:01:37;;;;;;;52.13;9.00;;;7.20;99.90;;;;;;4978415;28;20033;-81
2023/12/10 03:04:03;;;;;;;51.72;9.10;;;7.20;99.90;;;;;;4978217;28;20073;-82
2023/12/10 03:06:28;;;;;;;40.88;7.68;;;7.20;99.90;;;;;;4994594;28;20250;-81
2023/12/10 03:08:54;;;;;;;61.35;9.20;;;7.20;99.90;;;;;;5014355;28;20041;-81
2023/12/10 03:11:19;;;;;;;43.97;8.70;;;7.20;99.90;;;;;;5011065;28;20026;-81
2023/12/10 03:13:45;;;;;;;43.92;8.98;;;7.20;99.90;;;;;;4978078;28;20050;-81
2023/12/10 03:16:10;;;;;;;51.22;9.30;;;7.20;99.90;;;;;;4989056;28;20042;-80
2023/12/10 03:18:36;;;;;;;41.20;7.93;;;7.20;99.90;;;;;;5005431;28;20037;-82
2023/12/10 03:21:02;;;;;;;44.47;8.32;;;7.20;99.90;;;;;;5013779;28;20132;-81
2023/12/10 03:23:27;;;;;;;43.95;8.50;;;7.20;99.90;;;;;;4978271;28;20081;-82
2023/12/10 03:25:53;;;;;;;55.25;9.05;;;7.20;99.90;;;;;;4996631;28;20052;-83
2023/12/10 03:28:18;;;;;;;43.25;8.13;;;7.20;99.90;;;;;;4996981;28;20033;-82
2023/12/10 03:30:44;;;;;;;46.58;9.07;;;7.20;99.90;;;;;;5023825;28;20038;-80
2023/12/10 03:33:09;;;;;;;42.85;7.72;;;7.20;99.90;;;;;;5011802;28;20033;-80
2023/12/10 03:35:35;;;;;;;48.05;9.00;;;7.20;99.90;;;;;;4981787;28;20045;-81
2023/12/10 03:38:00;;;;;;;42.38;8.45;;;7.20;99.90;;;;;;4993732;28;20046;-81
2023/12/10 03:40:26;;;;;;;52.17;8.82;;;7.20;99.90;;;;;;5017893;28;20042;-80
2023/12/10 03:42:51;;;;;;;52.03;8.88;;;7.20;99.90;;;;;;5000832;28;20048;-81
2023/12/10 03:45:17;;;;;;;50.63;9.98;;;7.20;99.90;;;;;;5011181;28;20125;-83
2023/12/10 03:47:46;;;;;;;57.58;10.30;;;7.20;99.90;;;;;;5010935;28;20073;-80
2023/12/10 03:50:13;;;;;;;50.83;9.77;;;7.20;99.90;;;;;;5017140;28;20077;-81
2023/12/10 03:52:39;;;;;;;56.30;9.20;;;7.20;99.90;;;;;;5003868;28;20038;-82
2023/12/10 03:55:05;;;;;;;58.63;10.48;;;7.20;99.90;;;;;;5000970;28;20116;-82
2023/12/10 03:57:30;;;;;;;56.85;10.52;;;7.20;99.90;;;;;;5013379;28;20171;-81
2023/12/10 03:59:56;;;;;;;63.97;11.18;;;7.30;99.90;;;;;;5000816;28;20515;-80
2023/12/10 04:02:21;;;;;;;66.18;10.10;;;7.30;99.90;;;;;;5000637;28;20480;-82
2023/12/10 04:04:47;;;;;;;60.70;11.05;;;7.20;99.90;;;;;;5000536;28;20512;-81
2023/12/10 04:07:12;;;;;;;59.15;11.40;;;7.20;99.90;;;;;;5000714;28;20095;-81
2023/12/10 04:09:38;;;;;;;59.83;10.77;;;7.30;99.90;;;;;;4994068;28;20037;-80
2023/12/10 04:12:05;;;;;;;56.25;10.90;;;7.30;99.90;;;;;;5019804;28;20525;-81
2023/12/10 04:14:31;;;;;;;58.80;11.30;;;7.30;99.90;;;;;;4980779;28;20112;-80
2023/12/10 04:16:56;;;;;;;56.80;10.90;;;7.30;99.90;;;;;;4980984;28;20171;-80
2023/12/10 04:19:22;;;;;;;71.85;12.15;;;7.30;99.90;;;;;;5000893;28;20046;-81
2023/12/10 04:21:47;;;;;;;52.63;10.27;;;7.30;99.90;;;;;;5019904;28;20040;-80
2023/12/10 04:24:15;;;;;;;44.60;9.65;;;7.30;99.90;;;;;;5016647;28;20045;-81
2023/12/10 04:26:41;;;;;;;54.22;10.85;;;7.30;99.90;;;;;;4980883;28;20385;-81
2023/12/10 04:29:06;;;;;;;56.85;11.85;;;7.30;99.90;;;;;;4980837;28;20040;-81
2023/12/10 04:31:32;;;;;;;62.03;12.07;;;7.30;99.90;;;;;;4984966;28;20116;-81
2023/12/10 04:33:57;;;;;;;47.28;10.88;;;7.40;99.90;;;;;;5015913;28;20041;-81
2023/12/10 04:36:23;;;;;;;65.03;11.77;;;7.40;99.90;;;;;;5015852;28;20045;-81
2023/12/10 04:38:49;;;;;;;48.15;10.05;;;7.40;99.90;;;;;;5032792;28;20508;-80
2023/12/10 04:41:14;;;;;;;45.20;10.10;;;7.40;99.90;;;;;;5016490;28;20041;-79
2023/12/10 04:43:40;;;;;;;53.50;10.80;;;7.40;99.90;;;;;;5032766;28;20096;-82
2023/12/10 04:46:05;;;;;;;53.72;12.35;;;7.50;99.90;;;;;;5032761;28;20045;-81
2023/12/10 04:48:31;;;;;;;63.08;13.23;;;7.50;99.90;;;;;;5031878;28;20453;-82
2023/12/10 04:50:57;;;;;;;54.30;11.90;;;7.50;99.90;;;;;;4999903;28;20045;-81
2023/12/10 04:53:22;;;;;;;55.35;12.07;;;7.50;99.90;;;;;;5015781;28;20488;-81
2023/12/10 04:55:48;;;;;;;64.50;13.07;;;7.50;99.90;;;;;;4999767;28;20041;-81
2023/12/10 04:58:13;;;;;;;68.72;13.60;;;7.50;99.90;;;;;;4999870;28;20037;-80
2023/12/10 05:00:39;;;;;;;63.60;13.20;;;7.50;99.90;;;;;;5000090;28;20045;-81
2023/12/10 05:03:05;;;;;;;56.58;13.20;;;7.50;99.90;;;;;;4999009;28;20041;-80
2023/12/10 05:05:30;;;;;;;62.55;13.30;;;7.60;99.90;;;;;;4999596;28;20033;-81
2023/12/10 05:07:56;;;;;;;60.13;12.60;;;7.50;99.90;;;;;;4999642;28;20442;-79
2023/12/10 05:10:22;;;;;;;63.22;13.07;;;7.50;99.90;;;;;;5016061;28;20454;-80
2023/12/10 05:12:47;;;;;;;53.25;11.80;;;7.60;99.90;;;;;;4997476;28;20049;-80
2023/12/10 05:15:14;;;;;;;53.25;11.45;;;7.60;99.90;;;;;;5012412;28;20397;-80
2023/12/10 05:17:40;;;;;;;68.85;13.27;;;7.60;99.90;;;;;;4996295;28;20050;-81
2023/12/10 05:20:07;;;;;;;66.57;13.10;;;7.60;99.90;;;;;;4999497;28;20129;-80
2023/12/10 05:22:33;;;;;;;49.95;11.63;;;7.60;99.90;;;;;;4985500;28;20034;-79
2023/12/10 05:24:59;;;;;;;51.72;11.80;;;7.60;99.90;;;;;;4979825;28;20511;-79
2023/12/10 05:27:24;;;;;;;55.83;13.50;;;7.60;99.90;;;;;;4999324;28;20091;-81
2023/12/10 05:29:50;;;;;;;68.97;13.88;;;7.60;99.90;;;;;;4998852;28;20080;-80
2023/12/10 05:32:15;;;;;;;57.22;13.45;;;7.60;99.90;;;;;;4987707;28;20034;-79
2023/12/10 05:34:41;;;;;;;63.67;13.32;;;7.60;99.90;;;;;;4995771;28;20033;-79
2023/12/10 05:37:07;;;;;;;68.40;14.57;;;7.70;99.90;;;;;;4995767;28;20133;-79
2023/12/10 05:39:33;;;;;;;65.00;14.05;;;7.60;99.90;;;;;;4979659;28;20050;-79
2023/12/10 05:41:58;;;;;;;55.92;12.27;;;7.60;99.90;;;;;;4980113;28;20046;-79
2023/12/10 05:44:24;;;;;;;58.63;13.25;;;7.70;99.90;;;;;;4998800;28;20045;-80
2023/12/10 05:46:49;;;;;;;61.15;12.43;;;7.60;99.90;;;;;;5015173;28;20045;-80
2023/12/10 05:49:15;;;;;;;70.25;13.95;;;7.70;99.90;;;;;;4997912;28;20033;-79
2023/12/10 05:51:40;;;;;;;71.60;13.00;;;7.70;99.90;;;;;;5015140;28;20220;-79
2023/12/10 05:54:06;;;;;;;65.85;13.15;;;7.60;99.90;;;;;;4998658;28;20041;-80
2023/12/10 05:56:31;;;;;;;67.22;14.30;;;7.70;99.90;;;;;;5015088;28;20041;-79
2023/12/10 05:58:57;;;;;;;65.32;13.48;;;7.60;99.90;;;;;;5014985;28;20064;-78
2023/12/10 06:01:23;;;;;;;66.45;14.27;;;7.60;99.90;;;;;;5015084;28;20041;-79
2023/12/10 06:03:48;;;;;;;65.60;12.55;;;7.70;99.90;;;;;;5013093;28;20400;-78
2023/12/10 06:06:14;;;;;;;72.50;13.57;;;7.70;99.90;;;;;;4985893;28;20071;-79
2023/12/10 06:08:39;;;;;;;62.85;12.77;;;7.60;99.90;;;;;;4979055;28;20042;-79
2023/12/10 06:11:05;;;;;;;66.10;13.75;;;7.60;99.90;;;;;;4979144;28;20396;-79
2023/12/10 06:13:31;;;;;;;70.25;14.32;;;7.60;99.90;;;;;;5002501;28;20120;-79
2023/12/10 06:15:57;;;;;;;67.07;13.23;;;7.60;99.90;;;;;;5014575;28;20557;-80
2023/12/10 06:18:23;;;;;;;63.85;13.32;;;7.60;99.90;;;;;;5031240;28;20053;-79
2023/12/10 06:20:49;;;;;;;73.40;13.40;;;7.70;99.90;;;;;;5031210;28;20042;-79
2023/12/10 06:23:15;;;;;;;74.80;15.18;;;7.70;99.90;;;;;;5012626;28;20030;-79
2023/12/10 06:25:40;;;;;;;70.38;13.73;;;7.70;99.90;;;;;;4981057;28;20038;-79
2023/12/10 06:28:06;;;;;;;60.88;11.98;;;7.70;99.90;;;;;;5014259;28;20067;-78
2023/12/10 06:30:31;;;;;;;57.30;11.43;;;7.70;99.90;;;;;;5014518;28;20060;-79
2023/12/10 06:32:57;;;;;;;59.28;11.70;;;7.70;99.90;;;;;;5006979;28;20057;-79
2023/12/10 06:35:22;;;;;;;53.67;10.68;;;7.60;99.90;;;;;;4994446;28;20037;-80
2023/12/10 06:37:49;;;;;;;54.50;11.20;;;7.70;99.90;;;;;;5012260;28;20033;-79
2023/12/10 06:40:14;;;;;;;52.85;11.02;;;7.70;99.90;;;;;;5014090;28;20060;-79
2023/12/10 06:42:40;;;;;;;61.35;12.10;;;7.70;99.90;;;;;;4984997;28;20081;-79
2023/12/10 06:45:06;;;;;;;53.15;10.52;;;7.70;99.90;;;;;;5011151;28;20404;-79
2023/12/10 06:47:32;;;;;;;56.75;10.90;;;7.70;99.90;;;;;;5014035;28;20076;-78
2023/12/10 06:49:58;;;;;;;47.65;9.95;;;7.70;99.90;;;;;;5029304;28;20044;-79
2023/12/10 06:52:23;;;;;;;49.33;10.27;;;7.70;99.90;;;;;;5018797;28;20037;-79
2023/12/10 06:54:49;;;;;;;55.08;10.50;;;7.70;99.90;;;;;;4998195;28;20044;-79
2023/12/10 06:57:14;;;;;;;60.13;11.00;;;7.70;99.90;;;;;;4998078;28;20080;-79
2023/12/10 06:59:40;;;;;;;54.05;9.77;;;7.70;99.90;;;;;;4997915;28;20041;-79
2023/12/10 07:02:06;;;;;;;54.78;11.10;;;7.70;99.90;;;;;;4999211;28;20053;-80
2023/12/10 07:04:32;;;;;;;58.75;10.93;;;7.70;99.90;;;;;;5002237;28;20033;-79
2023/12/10 07:06:58;;;;;;;42.15;8.85;;;7.80;99.90;;;;;;5014348;28;20041;-80
2023/12/10 07:09:24;;;;;;;37.50;8.70;;;7.70;99.90;;;;;;5024610;28;20506;-80
2023/12/10 07:11:49;;;;;;;40.58;8.90;;;7.70;99.90;;;;;;5011462;28;20040;-81
2023/12/10 07:14:15;;;;;;;35.42;7.78;;;7.70;99.90;;;;;;5011409;28;20076;-79
2023/12/10 07:16:41;;;;;;;43.28;8.88;;;7.70;99.90;;;;;;5014085;28;20107;-80
2023/12/10 07:19:06;;;;;;;38.88;8.13;;;7.70;99.90;;;;;;5014414;28;20111;-80
2023/12/10 07:21:32;;;;;;;37.78;7.45;;;7.70;99.90;;;;;;5014888;28;20064;-80
2023/12/10 07:23:57;;;;;;;36.70;8.38;;;7.70;99.90;;;;;;5016810;28;20124;-80
2023/12/10 07:26:24;;;;;;;32.30;7.50;;;7.70;99.90;;;;;;5013979;28;20539;-80
2023/12/10 07:28:51;;;;;;;26.45;5.65;;;7.70;99.90;;;;;;5017451;28;20161;-80
2023/12/10 07:31:20;;;;;;;29.85;6.63;;;7.70;99.90;;;;;;4979048;28;20038;-80
2023/12/10 07:33:45;;;;;;;33.05;6.88;;;7.70;99.90;;;;;;4982657;28;20430;-81
2023/12/10 07:36:12;;;;;;;37.53;7.88;;;7.60;99.90;;;;;;5013045;28;20048;-81
2023/12/10 07:38:38;;;;;;;37.58;8.00;;;7.60;99.90;;;;;;4997845;28;20037;-80
2023/12/10 07:41:04;;;;;;;41.13;7.80;;;7.60;99.90;;;;;;4997700;28;20045;-81
2023/12/10 07:43:33;;;;;;;43.60;9.00;;;7.60;99.90;;;;;;4996894;28;20034;-81
2023/12/10 07:45:59;;;;;;;58.13;10.60;;;7.60;99.90;;;;;;5013748;28;20072;-81
2023/12/10 07:48:25;;;;;;;44.05;8.80;;;7.60;99.90;;;;;;5011804;28;20103;-81
2023/12/10 07:50:50;;;;;;;41.30;8.20;;;7.60;99.90;;;;;;5021060;28;20030;-80
2023/12/10 07:53:17;;;;;;;40.35;9.40;;;7.60;99.90;;;;;;5028162;28;20037;-82
2023/12/10 07:55:43;;;;;;;50.83;10.48;;;7.60;99.90;;;;;;4981275;28;20049;-81
2023/12/10 07:58:09;;;;;;;61.67;12.02;;;7.60;99.90;;;;;;4982938;28;20041;-81
2023/12/10 08:00:35;;;;;;;69.13;12.05;;;7.60;99.90;;;;;;4994291;28;20038;-82
2023/12/10 08:03:00;;;;;;;75.45;14.35;;;7.50;99.90;;;;;;4988799;28;20129;-81
2023/12/10 08:05:26;;;;;;;70.95;12.95;;;7.60;99.90;;;;;;5005747;28;20451;-80
2023/12/10 08:07:51;;;;;;;92.85;15.98;;;7.60;99.90;;;;;;5013867;28;20479;-82
2023/12/10 08:10:18;;;;;;;68.18;14.20;;;7.60;99.90;;;;;;5014406;28;20103;-81
2023/12/10 08:12:44;;;;;;;83.40;14.98;;;7.60;99.90;;;;;;4999927;28;20045;-85
2023/12/10 08:15:10;;;;;;;98.07;17.50;;;7.60;99.90;;;;;;5027428;28;20129;-84
2023/12/10 08:17:35;;;;;;;76.00;14.73;;;7.60;99.90;;;;;;5017496;28;20046;-84
2023/12/10 08:20:02;;;;;;;84.78;14.70;;;7.60;99.90;;;;;;5033796;28;20463;-84
2023/12/10 08:22:49;;;;;;;72.82;13.30;;;7.60;99.90;;;;;;5034843;28;20527;-80
2023/12/10 08:25:15;;;;;;;79.20;13.52;;;7.60;99.90;;;;;;5000388;28;20065;-82
2023/12/10 08:27:41;;;;;;;64.10;11.68;;;7.50;99.90;;;;;;5031782;28;20045;-82
2023/12/10 08:30:07;;;;;;;79.82;13.13;;;7.50;99.90;;;;;;5021663;28;20391;-82
2023/12/10 08:32:33;;;;;;;65.68;12.60;;;7.50;99.90;;;;;;4995790;28;20034;-82
2023/12/10 08:34:58;;;;;;;84.38;15.20;;;7.50;99.90;;;;;;5006294;28;20112;-82
2023/12/10 08:37:24;;;;;;;66.80;13.73;;;7.50;99.90;;;;;;5017676;28;20084;-82
2023/12/10 08:39:50;;;;;;;73.05;12.88;;;7.50;99.90;;;;;;5018325;28;20449;-82
2023/12/10 08:42:16;;;;;;;60.97;11.98;;;7.50;99.90;;;;;;5017544;28;20208;-82
2023/12/10 08:44:41;;;;;;;73.60;12.20;;;7.40;99.90;;;;;;5015886;28;20037;-81
2023/12/10 08:47:07;;;;;;;70.85;12.57;;;7.40;99.90;;;;;;5017513;28;20119;-82
2023/12/10 08:49:33;;;;;;;63.80;12.30;;;7.40;99.90;;;;;;5017616;28;20036;-82
2023/12/10 08:51:58;;;;;;;67.00;12.32;;;7.40;99.90;;;;;;5034313;28;20034;-82
2023/12/10 08:54:24;;;;;;;65.40;12.63;;;7.50;99.90;;;;;;5011273;28;20103;-81
2023/12/10 08:56:50;;;;;;;62.80;12.00;;;7.50;99.90;;;;;;5027074;28;20103;-81
2023/12/10 08:59:15;;;;;;;73.18;13.15;;;7.50;99.90;;;;;;4992846;28;20049;-82
2023/12/10 09:01:41;;;;;;;60.75;11.75;;;7.50;99.90;;;;;;4998995;28;20041;-82
2023/12/10 09:04:07;;;;;;;72.70;12.38;;;7.50;99.90;;;;;;4991667;28;20045;-82
2023/12/10 09:06:33;;;;;;;59.67;12.23;;;7.50;99.90;;;;;;5009683;28;20392;-82
2023/12/10 09:08:58;;;;;;;65.53;12.38;;;7.50;99.90;;;;;;5017300;28;20060;-82
2023/12/10 09:11:24;;;;;;;63.28;11.95;;;7.50;99.90;;;;;;5004703;28;20033;-80
2023/12/10 09:13:49;;;;;;;67.72;12.57;;;7.60;99.90;;;;;;5014985;28;20034;-81
2023/12/10 09:16:19;;;;;;;66.65;12.32;;;7.50;99.90;;;;;;5016618;28;20037;-81
2023/12/10 09:18:45;;;;;;;61.65;11.80;;;7.60;99.90;;;;;;5004819;28;20052;-82
2023/12/10 09:21:11;;;;;;;67.97;11.63;;;7.60;99.90;;;;;;4992840;28;20037;-80
2023/12/10 09:23:37;;;;;;;63.42;11.85;;;7.60;99.90;;;;;;5015729;28;20048;-82
2023/12/10 09:26:03;;;;;;;67.18;13.13;;;7.60;99.90;;;;;;5004701;28;20042;-80
2023/12/10 09:28:28;;;;;;;84.20;13.93;;;7.60;99.90;;;;;;5017061;28;20040;-81
2023/12/10 09:30:54;;;;;;;74.85;12.13;;;7.60;99.90;;;;;;5016810;28;20045;-81
2023/12/10 09:33:20;;;;;;;64.32;11.73;;;7.60;99.90;;;;;;5016766;28;20112;-81
2023/12/10 09:35:45;;;;;;;74.70;13.23;;;7.60;99.90;;;;;;5024146;28;20067;-81
2023/12/10 09:38:11;;;;;;;65.90;11.52;;;7.60;99.90;;;;;;5008740;28;20045;-81
2023/12/10 09:40:38;;;;;;;59.78;11.48;;;7.60;99.90;;;;;;4981689;28;20038;-81
2023/12/10 09:43:04;;;;;;;63.45;11.68;;;7.60;99.90;;;;;;4989660;28;20046;-81
2023/12/10 09:45:30;;;;;;;62.40;11.45;;;7.60;99.90;;;;;;5028037;28;20069;-81
2023/12/10 09:47:56;;;;;;;52.50;10.20;;;7.70;99.90;;;;;;5014368;28;20128;-83
2023/12/10 09:50:23;;;;;;;52.67;10.45;;;7.70;99.90;;;;;;5045015;28;20076;-81
2023/12/10 09:52:49;;;;;;;48.25;9.27;;;7.60;99.90;;;;;;5016701;28;20033;-81
2023/12/10 09:55:16;;;;;;;60.40;11.25;;;7.60;99.90;;;;;;5032605;28;20037;-82
2023/12/10 09:57:42;;;;;;;47.45;9.68;;;7.60;99.90;;;;;;5033211;28;20056;-81
2023/12/10 10:00:08;;;;;;;60.03;10.82;;;7.70;99.90;;;;;;4999201;28;20038;-80
2023/12/10 10:02:34;;;;;;;52.08;10.93;;;7.70;99.90;;;;;;4980771;28;20046;-80
2023/12/10 10:05:02;;;;;;;48.63;10.10;;;7.70;99.90;;;;;;4998928;28;20041;-81
2023/12/10 10:07:31;;;;;;;56.15;10.77;;;7.70;99.90;;;;;;5003204;28;20120;-81
2023/12/10 10:09:57;;;;;;;49.13;9.40;;;7.70;99.90;;;;;;5005542;28;20034;-81
2023/12/10 10:12:30;;;;;;;52.78;9.98;;;7.70;99.90;;;;;;5016593;28;20496;-81
2023/12/10 10:14:59;;;;;;;47.88;9.07;;;7.80;99.90;;;;;;5015969;28;20063;-81
2023/12/10 10:17:30;;;;;;;56.42;10.38;;;7.80;99.90;;;;;;5016398;28;20224;-81
2023/12/10 10:19:56;;;;;;;49.72;8.75;;;7.80;99.90;;;;;;4996992;28;20046;-81
2023/12/10 10:22:23;;;;;;;51.22;9.60;;;7.80;99.90;;;;;;5002370;28;20400;-80
2023/12/10 10:24:50;;;;;;;37.10;7.85;;;7.70;99.90;;;;;;5016185;28;20071;-81
2023/12/10 10:27:17;;;;;;;40.30;8.23;;;7.70;99.90;;;;;;5029866;28;20128;-81
2023/12/10 10:29:43;;;;;;;42.83;8.15;;;7.70;99.90;;;;;;5011403;28;20042;-81
2023/12/10 10:32:15;;;;;;;40.28;8.73;;;7.70;99.90;;;;;;5016728;28;20184;-81
2023/12/10 10:34:44;;;;;;;39.95;7.85;;;7.80;99.90;;;;;;4998356;28;20033;-80
2023/12/10 10:37:09;;;;;;;43.13;8.20;;;7.80;99.90;;;;;;5031622;28;20053;-80
2023/12/10 10:39:36;;;;;;;42.22;7.75;;;7.70;99.90;;;;;;4989788;28;20052;-81
2023/12/10 10:42:06;;;;;;;43.70;8.82;;;7.80;99.90;;;;;;5016608;28;20045;-82
2023/12/10 10:44:32;;;;;;;43.33;8.63;;;7.80;99.90;;;;;;5025934;28;20044;-83
2023/12/10 10:47:00;;;;;;;39.33;7.70;;;7.80;99.90;;;;;;5018852;28;20064;-84
2023/12/10 10:49:38;;;;;;;38.78;7.85;;;7.80;99.90;;;;;;5000074;28;20049;-82
2023/12/10 10:52:08;;;;;;;41.28;7.80;;;7.80;99.90;;;;;;4980487;28;20042;-81
2023/12/10 10:54:35;;;;;;;42.13;7.78;;;7.90;99.90;;;;;;5011674;28;20157;-83
2023/12/10 10:57:01;;;;;;;36.80;7.88;;;7.90;99.90;;;;;;5011712;28;20140;-82
2023/12/10 10:59:30;;;;;;;44.85;9.95;;;7.90;99.90;;;;;;5010056;28;20041;-80
2023/12/10 11:02:01;;;;;;;45.03;8.55;;;8.00;99.90;;;;;;5023538;28;20053;-80
2023/12/10 11:04:39;;;;;;;42.63;8.52;;;8.10;99.90;;;;;;5014412;28;20120;-80
2023/12/10 11:07:05;;;;;;;33.25;6.75;;;8.10;99.90;;;;;;5017628;28;20038;-81
2023/12/10 11:09:32;;;;;;;38.88;8.60;;;8.20;99.90;;;;;;4998269;28;20075;-80
2023/12/10 11:11:58;;;;;;;33.50;6.80;;;8.20;99.90;;;;;;5014580;28;20106;-80
2023/12/10 11:14:25;;;;;;;36.08;7.47;;;8.20;99.90;;;;;;5014190;28;20124;-80
2023/12/10 11:17:02;;;;;;;34.30;7.25;;;8.20;99.90;;;;;;5014313;28;20511;-81
2023/12/10 11:19:32;;;;;;;33.45;7.25;;;8.10;99.90;;;;;;4990957;28;20041;-80
2023/12/10 11:21:59;;;;;;;39.33;8.18;;;8.20;99.90;;;;;;5023098;28;20045;-80
2023/12/10 11:24:25;;;;;;;36.60;7.93;;;8.20;99.90;;;;;;5007013;28;20489;-79
2023/12/10 11:26:52;;;;;;;36.70;7.43;;;8.20;99.90;;;;;;5021680;28;20180;-81
2023/12/10 11:29:17;;;;;;;33.47;6.68;;;8.20;99.90;;;;;;5007110;28;20042;-80
2023/12/10 11:31:44;;;;;;;37.60;7.43;;;8.10;99.90;;;;;;5012490;28;20561;-79
2023/12/10 11:34:10;;;;;;;34.53;7.43;;;8.10;99.90;;;;;;5030598;28;20139;-80
2023/12/10 11:36:36;;;;;;;34.35;6.60;;;8.10;99.90;;;;;;5023784;28;20080;-79
2023/12/10 11:39:01;;;;;;;33.08;6.28;;;8.10;99.90;;;;;;4997355;28;20046;-79
2023/12/10 11:41:27;;;;;;;35.60;7.30;;;8.10;99.90;;;;;;5023255;28;20045;-81
2023/12/10 11:43:53;;;;;;;31.58;7.63;;;8.10;99.90;;;;;;5014599;28;20037;-80
2023/12/10 11:46:22;;;;;;;33.50;7.07;;;8.20;99.90;;;;;;5001986;28;20064;-79
2023/12/10 11:48:50;;;;;;;33.78;6.95;;;8.20;99.90;;;;;;5024091;28;20034;-80
2023/12/10 11:51:19;;;;;;;31.15;6.25;;;8.20;99.90;;;;;;5006417;28;20037;-82
2023/12/10 11:53:45;;;;;;;31.60;6.75;;;8.20;99.90;;;;;;5018549;28;20037;-80
2023/12/10 11:56:11;;;;;;;35.65;7.22;;;8.20;99.90;;;;;;5016883;22;20085;-76
2023/12/10 11:58:37;;;;;;;29.92;6.25;;;8.10;99.90;;;;;;4970451;28;20066;-76
2023/12/10 12:01:03;;;;;;;27.17;5.72;;;8.10;99.90;;;;;;4974070;28;20566;-77
2023/12/10 12:03:33;;;;;;;30.58;6.25;;;8.10;99.90;;;;;;4961474;28;20412;-76
2023/12/10 12:05:59;;;;;;;33.97;6.50;;;8.10;99.90;;;;;;4961954;28;20061;-76
2023/12/10 12:08:26;;;;;;;32.33;5.93;;;8.10;99.90;;;;;;4957958;28;20401;-76
2023/12/10 12:10:53;;;;;;;28.88;5.90;;;8.00;99.90;;;;;;4946070;28;20483;-76
2023/12/10 12:13:18;;;;;;;25.70;5.68;;;8.00;99.90;;;;;;4950214;28;20497;-76
2023/12/10 12:15:48;;;;;;;31.33;6.65;;;8.00;99.90;;;;;;4958687;28;20047;-76
2023/12/10 12:18:14;;;;;;;28.50;5.95;;;8.00;99.90;;;;;;4975259;28;20192;-76
2023/12/10 12:20:40;;;;;;;26.35;5.97;;;8.00;99.90;;;;;;4954970;28;20479;-76
2023/12/10 12:23:11;;;;;;;29.63;5.72;;;8.00;99.90;;;;;;4961769;28;20065;-76
2023/12/10 12:25:38;;;;;;;28.08;5.57;;;8.10;99.90;;;;;;4956508;28;20038;-76
2023/12/10 12:28:08;;;;;;;28.92;5.82;;;8.10;99.90;;;;;;4953911;28;20039;-76
2023/12/10 12:30:40;;;;;;;29.40;6.40;;;8.10;99.90;;;;;;4960160;28;20038;-76
2023/12/10 12:33:05;;;;;;;27.85;6.28;;;8.00;99.90;;;;;;4967973;28;20031;-76
2023/12/10 12:35:36;;;;;;;21.95;5.32;;;8.00;99.90;;;;;;4953294;28;20038;-76
2023/12/10 12:38:02;;;;;;;27.77;5.78;;;8.00;99.90;;;;;;4959865;28;20104;-75